Time;durP1;ratioP1;P1;durP2;ratioP2;P2;SDS_P1;SDS_P2;PMS_P1;PMS_P2;Temp;Humidity;BMP_temperature;BMP_pressure;BME280_temperature;BME280_humidity;BME280_pressure;Samples;Min_cycle;Max_cycle;Signal;HPM_P1;HPM_P2
2023/01/07 00:01:09;;;;;;;0.08;0.08;;;;;;;9.62;100.00;101573.63;4972721;28;20061;-77
2023/01/07 00:03:34;;;;;;;0.00;0.00;;;;;;;9.96;100.00;101576.88;4973982;28;20025;-77
2023/01/07 00:06:01;;;;;;;0.10;0.10;;;;;;;9.66;100.00;101560.91;4971264;28;20135;-75
2023/01/07 00:08:31;;;;;;;0.10;0.10;;;;;;;10.02;100.00;101576.50;4971090;28;20036;-75
2023/01/07 00:11:00;;;;;;;0.10;0.10;;;;;;;9.99;100.00;101578.50;4980677;28;21217;-75
2023/01/07 00:13:25;;;;;;;0.10;0.10;;;;;;;9.90;100.00;101567.41;4954358;28;20030;-77
2023/01/07 00:15:51;;;;;;;0.10;0.10;;;;;;;10.24;100.00;101555.44;4972924;28;20380;-76
2023/01/07 00:18:16;;;;;;;0.00;0.00;;;;;;;10.01;100.00;101547.94;4971015;28;20116;-76
2023/01/07 00:20:41;;;;;;;0.00;0.00;;;;;;;9.66;100.00;101542.16;4975743;28;20035;-76
2023/01/07 00:23:07;;;;;;;0.10;0.10;;;;;;;9.53;100.00;101558.97;4971933;28;20029;-75
2023/01/07 00:25:32;;;;;;;0.10;0.10;;;;;;;9.63;100.00;101551.22;4971176;28;20502;-76
2023/01/07 00:27:57;;;;;;;0.00;0.00;;;;;;;9.81;100.00;101543.84;4979886;28;20536;-76
2023/01/07 00:30:22;;;;;;;0.05;0.05;;;;;;;9.61;100.00;101539.72;4978689;28;20472;-75
2023/01/07 00:35:28;;;;;;;0.10;0.10;;;;;;;9.71;100.00;101548.94;4966203;28;20766;-74
2023/01/07 00:37:54;;;;;;;0.10;0.10;;;;;;;9.60;100.00;101546.94;4978492;28;20376;-77
2023/01/07 00:40:20;;;;;;;0.03;0.03;;;;;;;9.41;100.00;101543.63;4986651;28;20477;-77
2023/01/07 00:43:00;;;;;;;0.10;0.10;;;;;;;9.65;100.00;101522.50;4953931;28;20060;-77
2023/01/07 00:45:25;;;;;;;0.10;0.10;;;;;;;9.63;100.00;101528.94;4968010;28;20153;-74
2023/01/07 00:47:53;;;;;;;0.10;0.10;;;;;;;9.69;100.00;101510.63;4969392;28;20400;-76
2023/01/07 00:50:20;;;;;;;0.10;0.10;;;;;;;9.70;100.00;101480.16;4972845;28;20496;-75
2023/01/07 00:52:45;;;;;;;0.10;0.10;;;;;;;9.47;100.00;101500.38;4969446;28;20472;-76
2023/01/07 00:55:11;;;;;;;0.03;0.03;;;;;;;9.51;100.00;101525.19;4974717;28;20054;-74
2023/01/07 00:57:36;;;;;;;0.10;0.10;;;;;;;9.68;100.00;101495.50;4970502;28;20440;-75
2023/01/07 01:00:01;;;;;;;0.10;0.10;;;;;;;9.57;100.00;101517.63;4970571;28;20656;-75
2023/01/07 01:02:27;;;;;;;0.10;0.10;;;;;;;9.62;100.00;101516.47;4965172;28;20030;-77
2023/01/07 01:04:52;;;;;;;0.10;0.10;;;;;;;9.53;100.00;101489.28;4951775;28;20611;-76
2023/01/07 01:07:17;;;;;;;0.10;0.10;;;;;;;9.30;100.00;101488.91;4951872;28;20519;-76
2023/01/07 01:09:43;;;;;;;0.10;0.10;;;;;;;9.61;100.00;101499.50;4974481;28;20069;-75
2023/01/07 01:12:08;;;;;;;0.10;0.10;;;;;;;9.57;100.00;101506.03;4977114;28;20034;-75
2023/01/07 01:14:33;;;;;;;0.10;0.10;;;;;;;9.50;100.00;101504.72;4975318;28;20133;-75
2023/01/07 01:16:58;;;;;;;0.10;0.10;;;;;;;9.53;100.00;101496.47;4971020;28;20030;-75
2023/01/07 01:19:24;;;;;;;0.00;0.00;;;;;;;9.72;100.00;101513.13;4979424;28;20029;-74
2023/01/07 01:21:49;;;;;;;0.10;0.10;;;;;;;9.31;100.00;101454.91;4978879;28;20085;-76
2023/01/07 01:24:14;;;;;;;0.10;0.10;;;;;;;9.66;100.00;101504.59;4993253;28;20121;-76
2023/01/07 01:26:40;;;;;;;0.10;0.10;;;;;;;9.45;100.00;101508.53;4984413;28;20029;-77
2023/01/07 01:29:05;;;;;;;0.10;0.10;;;;;;;9.13;100.00;101470.34;4982831;28;20503;-74
2023/01/07 01:31:30;;;;;;;0.10;0.10;;;;;;;9.42;100.00;101507.84;4984733;28;20436;-75
2023/01/07 01:33:56;;;;;;;0.10;0.10;;;;;;;9.42;100.00;101473.88;4977032;28;20026;-74
2023/01/07 01:36:22;;;;;;;0.08;0.08;;;;;;;9.51;100.00;101490.34;4984558;28;20125;-74
2023/01/07 01:38:47;;;;;;;0.10;0.10;;;;;;;9.61;100.00;101496.81;4966522;28;20030;-74
2023/01/07 01:41:15;;;;;;;0.10;0.10;;;;;;;9.26;100.00;101498.09;4970890;28;20041;-74
2023/01/07 01:43:43;;;;;;;0.10;0.10;;;;;;;9.23;100.00;101509.00;4971975;28;20026;-75
2023/01/07 01:46:32;;;;;;;0.10;0.10;;;;;;;9.50;100.00;101489.47;4974998;28;20502;-75
2023/01/07 01:49:09;;;;;;;0.10;0.10;;;;;;;9.47;100.00;101473.56;4974363;28;20039;-74
2023/01/07 01:51:37;;;;;;;0.10;0.10;;;;;;;9.33;100.00;101500.41;4967972;28;20061;-75
2023/01/07 01:54:04;;;;;;;0.10;0.10;;;;;;;9.29;100.00;101468.41;4971849;28;21694;-74
2023/01/07 01:56:33;;;;;;;0.10;0.10;;;;;;;9.24;100.00;101475.03;4968547;28;20030;-76
2023/01/07 01:59:02;;;;;;;0.10;0.10;;;;;;;9.36;100.00;101497.53;4975120;28;20361;-77
2023/01/07 02:01:27;;;;;;;0.10;0.10;;;;;;;9.25;100.00;101493.69;4969638;28;20042;-76
2023/01/07 02:03:53;;;;;;;0.10;0.10;;;;;;;9.27;100.00;101488.25;4970616;28;20041;-77
2023/01/07 02:06:23;;;;;;;0.10;0.10;;;;;;;9.02;100.00;101495.09;4972151;28;20464;-75
2023/01/07 02:08:48;;;;;;;0.10;0.10;;;;;;;9.19;100.00;101496.72;4980933;28;20034;-75
2023/01/07 02:11:37;;;;;;;0.10;0.10;;;;;;;9.13;100.00;101497.97;4975031;28;20633;-76
2023/01/07 02:14:11;;;;;;;0.10;0.10;;;;;;;9.13;100.00;101491.78;4969075;28;20038;-74
2023/01/07 02:16:42;;;;;;;;;;;;;;;9.28;100.00;101497.97;4974128;28;20026;-75
2023/01/07 02:19:26;;;;;;;0.10;0.10;;;;;;;9.40;100.00;101497.22;4956256;28;20363;-74
2023/01/07 02:22:06;;;;;;;0.10;0.10;;;;;;;9.08;100.00;101493.88;4970959;28;20045;-75
2023/01/07 02:24:37;;;;;;;0.00;0.00;;;;;;;9.10;100.00;101490.13;4978964;28;20737;-74
2023/01/07 02:27:14;;;;;;;0.10;0.10;;;;;;;9.21;100.00;101478.75;4974332;28;20022;-75
2023/01/07 02:30:17;;;;;;;0.10;0.10;;;;;;;9.15;100.00;101488.03;4971911;28;20420;-75
2023/01/07 02:32:54;;;;;;;0.10;0.10;;;;;;;9.10;100.00;101487.44;4972670;28;20870;-75
2023/01/07 02:35:49;;;;;;;0.10;0.10;;;;;;;9.21;100.00;101486.78;4970288;28;20056;-75
2023/01/07 02:38:24;;;;;;;0.10;0.10;;;;;;;9.10;100.00;101487.44;4965733;28;20112;-74
2023/01/07 02:40:57;;;;;;;0.10;0.10;;;;;;;9.07;100.00;101482.28;4972835;28;20036;-74
2023/01/07 02:43:34;;;;;;;0.10;0.10;;;;;;;8.93;100.00;101482.28;4970788;28;20030;-74
2023/01/07 02:46:02;;;;;;;0.10;0.10;;;;;;;9.28;100.00;101471.19;4971700;28;20030;-76
2023/01/07 02:48:28;;;;;;;0.10;0.10;;;;;;;9.12;100.00;101460.59;4968133;28;20370;-76
2023/01/07 02:50:53;;;;;;;0.10;0.10;;;;;;;9.11;100.00;101469.56;4956629;28;20100;-75
2023/01/07 02:53:19;;;;;;;0.10;0.10;;;;;;;8.85;100.00;101462.16;4971251;28;20393;-74
2023/01/07 02:55:51;;;;;;;0.10;0.10;;;;;;;9.15;100.00;101473.75;4970116;28;20022;-74
2023/01/07 02:58:39;;;;;;;0.10;0.10;;;;;;;8.95;100.00;101451.75;4970729;28;20026;-74
2023/01/07 03:01:19;;;;;;;0.10;0.10;;;;;;;9.03;100.00;101458.47;4969345;28;20391;-75
2023/01/07 03:04:01;;;;;;;0.10;0.10;;;;;;;8.93;100.00;101453.66;4965792;28;20038;-75
2023/01/07 03:06:36;;;;;;;0.10;0.10;;;;;;;9.11;100.00;101457.03;4967713;28;20030;-76
2023/01/07 03:09:29;;;;;;;0.10;0.10;;;;;;;9.25;100.00;101448.13;4971350;28;20034;-75
2023/01/07 03:12:11;;;;;;;0.10;0.10;;;;;;;9.32;100.00;101453.97;4972403;28;20029;-76
2023/01/07 03:14:56;;;;;;;0.10;0.10;;;;;;;9.28;100.00;101442.59;4974394;28;20499;-75
2023/01/07 03:17:25;;;;;;;0.10;0.10;;;;;;;9.09;100.00;101450.06;4972494;28;20045;-76
2023/01/07 03:19:56;;;;;;;0.10;0.10;;;;;;;9.08;100.00;101433.09;4974389;28;20034;-75
2023/01/07 03:22:22;;;;;;;0.10;0.10;;;;;;;8.96;100.00;101432.03;4990694;28;20475;-76
2023/01/07 03:24:50;;;;;;;0.10;0.10;;;;;;;9.13;100.00;101439.03;4983471;28;21160;-75
2023/01/07 03:27:18;;;;;;;0.10;0.10;;;;;;;9.20;100.00;101438.66;4983295;28;20026;-75
2023/01/07 03:29:44;;;;;;;0.10;0.10;;;;;;;9.21;100.00;101437.72;4980770;28;20408;-75
2023/01/07 03:32:15;;;;;;;0.10;0.10;;;;;;;8.85;100.00;101434.53;4971677;28;20499;-74
2023/01/07 03:34:41;;;;;;;0.10;0.10;;;;;;;8.89;100.00;101425.34;4971740;28;20105;-75
2023/01/07 03:37:13;;;;;;;0.10;0.10;;;;;;;9.01;100.00;101396.94;4973170;28;21477;-73
2023/01/07 03:39:40;;;;;;;0.00;0.00;;;;;;;8.71;100.00;101408.59;4982880;28;20030;-76
2023/01/07 03:44:51;;;;;;;0.10;0.10;;;;;;;9.03;100.00;101421.81;4973887;28;20089;-75
2023/01/07 03:47:17;;;;;;;0.10;0.10;;;;;;;9.17;100.00;101425.47;4973168;28;20038;-76
2023/01/07 03:49:42;;;;;;;0.08;0.08;;;;;;;8.94;100.00;101419.72;4970367;28;20035;-75
2023/01/07 03:52:08;;;;;;;0.10;0.10;;;;;;;9.04;100.00;101387.88;4972685;28;20045;-75
2023/01/07 03:54:33;;;;;;;0.10;0.10;;;;;;;8.78;100.00;101385.00;4972346;28;20787;-74
2023/01/07 03:56:58;;;;;;;0.10;0.10;;;;;;;9.11;100.00;101413.31;4969724;28;20038;-75
2023/01/07 03:59:23;;;;;;;0.10;0.10;;;;;;;8.97;100.00;101412.34;4976044;28;20036;-75
2023/01/07 04:01:49;;;;;;;0.08;0.08;;;;;;;9.12;100.00;101397.13;4976951;28;20470;-76
2023/01/07 04:04:14;;;;;;;0.10;0.10;;;;;;;9.03;100.00;101396.84;4982528;28;20369;-74
2023/01/07 04:06:39;;;;;;;0.03;0.03;;;;;;;9.00;100.00;101398.75;4983962;28;20035;-75
2023/01/07 04:09:05;;;;;;;0.00;0.00;;;;;;;9.03;100.00;101362.03;4978025;28;20033;-77
2023/01/07 04:11:30;;;;;;;0.10;0.10;;;;;;;8.90;100.00;101370.81;4972486;28;20105;-75
2023/01/07 04:13:59;;;;;;;0.10;0.10;;;;;;;9.22;100.00;101367.09;4969940;28;20038;-75
2023/01/07 04:16:24;;;;;;;0.10;0.10;;;;;;;9.45;100.00;101404.00;4975588;28;20039;-74
2023/01/07 04:18:50;;;;;;;0.10;0.10;;;;;;;9.37;100.00;101386.69;4981811;28;20045;-74
2023/01/07 04:21:15;;;;;;;0.10;0.10;;;;;;;9.48;100.00;101394.03;4970251;28;20149;-75
2023/01/07 04:23:40;;;;;;;0.10;0.10;;;;;;;9.27;100.00;101370.34;4983776;28;20607;-75
2023/01/07 04:26:05;;;;;;;0.10;0.10;;;;;;;9.37;100.00;101389.38;4982225;28;20034;-74
2023/01/07 04:28:31;;;;;;;0.10;0.10;;;;;;;9.22;100.00;101361.72;4986646;28;20358;-74
2023/01/07 04:30:59;;;;;;;0.10;0.10;;;;;;;9.43;100.00;101379.09;4982191;28;20125;-76
2023/01/07 04:33:24;;;;;;;0.10;0.10;;;;;;;9.27;100.00;101359.63;4979951;28;20061;-74
2023/01/07 04:35:50;;;;;;;0.10;0.10;;;;;;;9.49;100.00;101372.47;4973801;28;20072;-75
2023/01/07 04:38:15;;;;;;;0.10;0.10;;;;;;;9.59;100.00;101352.16;4987679;28;20030;-74
2023/01/07 04:40:41;;;;;;;0.10;0.10;;;;;;;9.43;100.00;101344.25;4981932;28;20080;-76
2023/01/07 04:43:07;;;;;;;0.10;0.10;;;;;;;9.77;100.00;101351.06;5000245;28;20092;-75
2023/01/07 04:45:32;;;;;;;0.10;0.10;;;;;;;9.62;100.00;101355.63;4987601;28;20030;-75
2023/01/07 04:47:58;;;;;;;0.10;0.10;;;;;;;9.49;100.00;101328.75;4982091;28;20045;-76
2023/01/07 04:50:23;;;;;;;0.10;0.10;;;;;;;9.39;100.00;101315.94;4997411;28;20113;-75
2023/01/07 04:52:49;;;;;;;0.10;0.10;;;;;;;9.50;100.00;101317.91;4984465;28;20113;-75
2023/01/07 04:55:14;;;;;;;0.10;0.10;;;;;;;9.32;100.00;101338.72;4986762;28;20034;-74
2023/01/07 04:57:39;;;;;;;0.10;0.10;;;;;;;9.40;100.00;101340.94;4983210;28;20594;-75
2023/01/07 05:00:06;;;;;;;0.10;0.10;;;;;;;9.44;100.00;101312.94;4985247;28;20072;-76
2023/01/07 05:02:31;;;;;;;0.00;0.00;;;;;;;9.44;100.00;101329.03;4984136;28;20037;-76
2023/01/07 05:04:57;;;;;;;0.10;0.10;;;;;;;9.30;100.00;101314.72;4984870;28;20034;-77
2023/01/07 05:07:22;;;;;;;0.10;0.10;;;;;;;9.75;100.00;101338.63;4988584;28;20026;-75
2023/01/07 05:09:47;;;;;;;0.10;0.10;;;;;;;9.67;100.00;101321.28;4984078;28;20037;-75
2023/01/07 05:12:13;;;;;;;0.10;0.10;;;;;;;9.48;100.00;101346.63;4983000;28;20100;-74
2023/01/07 05:14:38;;;;;;;0.10;0.10;;;;;;;9.45;100.00;101317.34;4987989;28;20038;-76
2023/01/07 05:17:03;;;;;;;0.10;0.10;;;;;;;9.63;100.00;101312.59;4987955;28;20034;-75
2023/01/07 05:19:29;;;;;;;0.10;0.10;;;;;;;9.41;100.00;101324.75;4982400;28;20038;-76
2023/01/07 05:21:54;;;;;;;0.10;0.10;;;;;;;9.63;100.00;101330.53;4981149;28;20709;-76
2023/01/07 05:24:19;;;;;;;0.10;0.10;;;;;;;9.42;100.00;101322.91;4982367;28;20700;-75
2023/01/07 05:26:44;;;;;;;0.10;0.10;;;;;;;9.43;100.00;101324.63;4981813;28;20490;-75
2023/01/07 05:29:10;;;;;;;0.10;0.10;;;;;;;9.55;100.00;101302.41;4980256;28;20037;-76
2023/01/07 05:31:35;;;;;;;0.10;0.10;;;;;;;9.20;100.00;101284.13;4978640;28;20043;-75
2023/01/07 05:34:00;;;;;;;0.10;0.10;;;;;;;9.74;100.00;101314.56;4982161;28;20030;-75
2023/01/07 05:36:26;;;;;;;0.10;0.10;;;;;;;9.85;100.00;101320.09;4981547;28;20542;-76
2023/01/07 05:38:51;;;;;;;0.05;0.05;;;;;;;9.51;100.00;101297.34;4985968;28;20153;-76
2023/01/07 05:41:16;;;;;;;0.10;0.10;;;;;;;9.45;100.00;101296.78;4981365;28;20030;-76
2023/01/07 05:43:42;;;;;;;0.10;0.10;;;;;;;9.48;100.00;101319.00;4981734;28;20095;-75
2023/01/07 05:46:07;;;;;;;0.10;0.10;;;;;;;9.60;100.00;101318.16;4982718;28;20117;-76
2023/01/07 05:48:32;;;;;;;0.10;0.10;;;;;;;9.72;100.00;101297.72;4982498;28;20034;-76
2023/01/07 05:50:58;;;;;;;0.10;0.10;;;;;;;9.26;100.00;101298.97;4989347;28;20030;-75
2023/01/07 05:53:23;;;;;;;0.10;0.10;;;;;;;9.37;100.00;101293.75;4982814;28;20030;-76
2023/01/07 05:55:54;;;;;;;0.10;0.10;;;;;;;9.32;100.00;101292.31;4981286;28;20034;-75
2023/01/07 05:58:19;;;;;;;0.10;0.10;;;;;;;9.73;100.00;101291.38;4996176;28;20544;-76
2023/01/07 06:00:45;;;;;;;0.10;0.10;;;;;;;9.61;100.00;101306.47;4980239;28;20034;-75
2023/01/07 06:03:10;;;;;;;0.10;0.10;;;;;;;9.63;100.00;101291.16;4983305;28;20137;-75
2023/01/07 06:05:35;;;;;;;0.10;0.10;;;;;;;9.60;100.00;101294.03;4983350;28;20060;-77
2023/01/07 06:08:01;;;;;;;0.10;0.10;;;;;;;9.87;100.00;101307.44;4984888;28;20232;-75
2023/01/07 06:10:26;;;;;;;0.10;0.10;;;;;;;9.77;100.00;101300.94;4985105;28;20031;-75
2023/01/07 06:12:51;;;;;;;0.10;0.10;;;;;;;9.66;100.00;101299.00;4977234;28;20120;-74
2023/01/07 06:15:17;;;;;;;0.00;0.00;;;;;;;9.66;100.00;101292.78;4986441;28;20037;-75
2023/01/07 06:17:43;;;;;;;0.10;0.10;;;;;;;9.53;100.00;101268.63;4981925;28;20026;-76
2023/01/07 06:20:09;;;;;;;0.10;0.10;;;;;;;9.78;100.00;101269.66;4978848;28;20396;-76
2023/01/07 06:22:35;;;;;;;0.10;0.10;;;;;;;9.75;100.00;101278.75;4982096;28;20420;-76
2023/01/07 06:25:00;;;;;;;0.10;0.10;;;;;;;9.62;100.00;101289.44;4979936;28;20132;-76
2023/01/07 06:27:25;;;;;;;0.10;0.10;;;;;;;9.95;100.00;101265.78;4974846;28;20034;-76
2023/01/07 06:29:51;;;;;;;0.10;0.10;;;;;;;9.76;100.00;101277.78;4973616;28;20036;-77
2023/01/07 06:32:16;;;;;;;0.10;0.10;;;;;;;9.93;100.00;101254.34;4971154;28;20060;-77
2023/01/07 06:34:41;;;;;;;0.10;0.10;;;;;;;9.73;100.00;101273.50;4981458;28;20027;-77
2023/01/07 06:37:07;;;;;;;0.20;0.20;;;;;;;9.46;100.00;101257.41;4977885;28;20033;-76
2023/01/07 06:39:32;;;;;;;0.10;0.10;;;;;;;9.72;100.00;101244.97;4976235;28;20030;-75
2023/01/07 06:41:57;;;;;;;0.10;0.10;;;;;;;9.60;100.00;101216.28;4969803;28;20113;-75
2023/01/07 06:44:23;;;;;;;0.10;0.10;;;;;;;9.86;100.00;101237.78;4957612;28;20100;-76
2023/01/07 06:46:48;;;;;;;0.10;0.10;;;;;;;9.72;100.00;101222.63;4977461;28;20092;-75
2023/01/07 06:49:13;;;;;;;0.10;0.10;;;;;;;9.77;100.00;101236.59;4974935;28;20038;-76
2023/01/07 06:51:39;;;;;;;0.10;0.10;;;;;;;9.97;100.00;101255.81;4976652;28;20023;-77
2023/01/07 06:54:04;;;;;;;0.10;0.10;;;;;;;9.71;100.00;101245.94;4974621;28;20377;-77
2023/01/07 06:56:29;;;;;;;0.10;0.10;;;;;;;9.77;100.00;101241.97;4983218;28;20151;-76
2023/01/07 06:58:55;;;;;;;0.10;0.10;;;;;;;9.91;100.00;101238.34;4972109;28;20570;-76
2023/01/07 07:01:20;;;;;;;0.10;0.10;;;;;;;9.75;100.00;101243.88;4971137;28;20045;-78
2023/01/07 07:03:45;;;;;;;0.10;0.10;;;;;;;9.56;100.00;101218.34;4969807;28;20101;-74
2023/01/07 07:06:11;;;;;;;0.10;0.10;;;;;;;9.84;100.00;101234.34;4969826;28;20361;-75
2023/01/07 07:08:36;;;;;;;0.10;0.10;;;;;;;9.90;100.00;101233.94;4973495;28;20487;-75
2023/01/07 07:11:01;;;;;;;0.10;0.10;;;;;;;9.89;100.00;101233.09;4973933;28;20719;-76
2023/01/07 07:13:26;;;;;;;0.10;0.10;;;;;;;9.88;100.00;101241.22;4973802;28;20034;-76
2023/01/07 07:15:52;;;;;;;0.10;0.10;;;;;;;9.53;100.00;101241.81;4983833;28;20502;-75
2023/01/07 07:18:17;;;;;;;0.10;0.10;;;;;;;9.59;100.00;101226.16;4985222;28;20037;-75
2023/01/07 07:20:45;;;;;;;0.10;0.10;;;;;;;9.70;100.00;101225.44;4983431;28;20034;-75
2023/01/07 07:23:10;;;;;;;0.10;0.10;;;;;;;9.52;100.00;101210.59;4993778;28;20031;-75
2023/01/07 07:25:35;;;;;;;0.10;0.10;;;;;;;9.79;100.00;101198.97;4965775;28;20614;-73
2023/01/07 07:28:01;;;;;;;0.10;0.10;;;;;;;10.04;100.00;101200.78;4982620;28;20481;-77
2023/01/07 07:30:26;;;;;;;0.10;0.10;;;;;;;9.75;100.00;101222.44;4984126;28;20034;-75
2023/01/07 07:32:51;;;;;;;0.10;0.10;;;;;;;9.59;100.00;101218.13;4978758;28;20030;-76
2023/01/07 07:35:17;;;;;;;0.10;0.10;;;;;;;9.77;100.00;101204.41;4981347;28;20049;-74
2023/01/07 07:37:42;;;;;;;0.10;0.10;;;;;;;9.66;100.00;101215.88;4982342;28;20029;-76
2023/01/07 07:40:08;;;;;;;0.10;0.10;;;;;;;9.43;100.00;101207.56;4985796;28;20109;-75
2023/01/07 07:42:33;;;;;;;0.10;0.10;;;;;;;9.25;100.00;101192.75;4981067;28;20369;-75
2023/01/07 07:44:59;;;;;;;0.08;0.08;;;;;;;9.37;100.00;101177.66;4986239;28;20141;-74
2023/01/07 07:47:24;;;;;;;0.10;0.10;;;;;;;9.66;100.00;101207.00;4986018;28;20473;-76
2023/01/07 07:49:50;;;;;;;0.10;0.10;;;;;;;9.65;100.00;101205.28;4974156;28;20080;-75
2023/01/07 07:52:16;;;;;;;0.08;0.08;;;;;;;9.31;100.00;101186.94;4974666;28;20057;-75
2023/01/07 07:54:41;;;;;;;0.10;0.10;;;;;;;9.58;100.00;101192.28;4977880;28;20476;-76
2023/01/07 07:57:06;;;;;;;0.10;0.10;;;;;;;9.53;100.00;101201.59;4956074;28;21387;-76
2023/01/07 07:59:32;;;;;;;0.10;0.10;;;;;;;9.44;100.00;101184.31;4972647;28;20062;-76
2023/01/07 08:01:57;;;;;;;0.10;0.10;;;;;;;9.33;100.00;101181.50;4980812;28;21027;-76
2023/01/07 08:04:22;;;;;;;0.10;0.10;;;;;;;9.53;100.00;101183.69;4972706;28;20038;-76
2023/01/07 08:06:48;;;;;;;0.10;0.10;;;;;;;9.43;100.00;101196.84;4966756;28;20067;-76
2023/01/07 08:09:13;;;;;;;0.00;0.00;;;;;;;9.35;100.00;101172.38;4968643;28;20030;-76
2023/01/07 08:11:38;;;;;;;0.10;0.10;;;;;;;9.17;100.00;101138.81;4967528;28;20030;-75
2023/01/07 08:14:04;;;;;;;0.10;0.10;;;;;;;9.50;100.00;101196.44;4966783;28;20038;-75
2023/01/07 08:16:29;;;;;;;0.10;0.10;;;;;;;9.69;100.00;101191.53;4978282;28;20033;-76
2023/01/07 08:18:54;;;;;;;0.10;0.10;;;;;;;9.57;100.00;101177.16;4979702;28;20121;-76
2023/01/07 08:21:20;;;;;;;0.10;0.10;;;;;;;9.76;100.00;101186.59;4979864;28;20034;-76
2023/01/07 08:23:45;;;;;;;0.10;0.10;;;;;;;9.69;100.00;101194.22;4977408;28;20118;-75
2023/01/07 08:26:10;;;;;;;0.10;0.10;;;;;;;9.94;100.00;101191.66;4981131;28;20104;-76
2023/01/07 08:28:37;;;;;;;0.10;0.10;;;;;;;9.82;100.00;101156.69;4977915;28;20030;-75
2023/01/07 08:31:04;;;;;;;0.00;0.00;;;;;;;9.75;100.00;101179.53;4980803;28;20038;-75
2023/01/07 08:33:32;;;;;;;0.10;0.10;;;;;;;9.80;100.00;101187.28;4975023;28;20038;-76
2023/01/07 08:35:58;;;;;;;0.10;0.10;;;;;;;9.76;100.00;101178.56;4979678;28;20033;-76
2023/01/07 08:38:24;;;;;;;0.10;0.10;;;;;;;9.75;100.00;101179.53;4976827;28;20034;-75
2023/01/07 08:40:49;;;;;;;0.10;0.10;;;;;;;9.79;100.00;101162.25;4979934;28;20140;-76
2023/01/07 08:43:14;;;;;;;0.10;0.10;;;;;;;9.65;100.00;101171.25;4976579;28;20018;-76
2023/01/07 08:45:40;;;;;;;0.10;0.10;;;;;;;10.10;100.00;101153.88;4980913;28;20382;-75
2023/01/07 08:48:05;;;;;;;0.10;0.10;;;;;;;9.86;100.00;101150.16;4978920;28;20472;-76
2023/01/07 08:50:32;;;;;;;0.10;0.10;;;;;;;10.00;100.00;101154.56;4980902;28;20061;-75
2023/01/07 08:52:57;;;;;;;0.10;0.10;;;;;;;10.17;100.00;101160.53;4977235;28;20121;-75
2023/01/07 08:55:23;;;;;;;0.10;0.10;;;;;;;9.95;100.00;101162.06;4983344;28;20034;-76
2023/01/07 08:57:49;;;;;;;0.00;0.00;;;;;;;9.73;100.00;101152.84;4978932;28;20058;-76
2023/01/07 09:00:16;;;;;;;0.10;0.10;;;;;;;9.92;100.00;101148.00;4977526;28;20080;-76
2023/01/07 09:02:41;;;;;;;0.10;0.10;;;;;;;9.79;100.00;101153.38;4974576;28;20033;-76
2023/01/07 09:05:07;;;;;;;0.10;0.10;;;;;;;9.77;100.00;101144.59;4980245;28;20038;-77
2023/01/07 09:07:32;;;;;;;0.10;0.10;;;;;;;9.93;100.00;101155.94;4978994;28;20112;-76
2023/01/07 09:09:58;;;;;;;0.10;0.10;;;;;;;9.87;100.00;101142.97;4982588;28;20042;-76
2023/01/07 09:12:23;;;;;;;0.10;0.10;;;;;;;9.75;100.00;101123.22;4977224;28;20066;-76
2023/01/07 09:14:48;;;;;;;0.10;0.10;;;;;;;9.85;100.00;101148.44;4982121;28;20174;-76
2023/01/07 09:17:14;;;;;;;0.10;0.10;;;;;;;9.93;100.00;101155.94;4982140;28;20042;-75
2023/01/07 09:19:39;;;;;;;0.10;0.10;;;;;;;9.72;100.00;101135.03;4977322;28;20126;-76
2023/01/07 09:22:04;;;;;;;0.10;0.10;;;;;;;10.20;100.00;101128.13;4980141;28;20037;-76
2023/01/07 09:24:29;;;;;;;0.10;0.10;;;;;;;10.08;100.00;101137.03;4980649;28;20127;-76
2023/01/07 09:26:55;;;;;;;0.10;0.10;;;;;;;10.02;100.00;101131.16;4978453;28;20491;-74
2023/01/07 09:29:20;;;;;;;0.10;0.10;;;;;;;10.04;100.00;101137.28;4978779;28;20466;-76
2023/01/07 09:31:45;;;;;;;0.10;0.10;;;;;;;9.87;100.00;101119.69;4971200;28;20206;-76
2023/01/07 09:34:11;;;;;;;0.10;0.10;;;;;;;10.27;100.00;101141.94;4976367;28;20104;-76
2023/01/07 09:36:36;;;;;;;0.10;0.10;;;;;;;10.11;100.00;101137.69;4979027;28;20035;-75
2023/01/07 09:39:04;;;;;;;0.10;0.10;;;;;;;10.21;100.00;101133.38;4974445;28;20034;-75
2023/01/07 09:41:32;;;;;;;0.10;0.10;;;;;;;10.36;100.00;101133.25;4979415;28;20048;-74
2023/01/07 09:44:09;;;;;;;0.10;0.10;;;;;;;9.92;100.00;101134.59;4976622;28;20041;-76
2023/01/07 09:46:35;;;;;;;0.10;0.10;;;;;;;10.17;100.00;101106.88;4960853;28;20022;-76
2023/01/07 09:49:01;;;;;;;0.10;0.10;;;;;;;10.00;100.00;101122.38;4975410;28;20129;-75
2023/01/07 09:51:37;;;;;;;0.10;0.10;;;;;;;10.35;100.00;101112.75;4982285;28;20030;-75
2023/01/07 09:54:04;;;;;;;0.10;0.10;;;;;;;10.16;100.00;101116.75;4973483;28;20038;-74
2023/01/07 09:56:32;;;;;;;0.10;0.10;;;;;;;10.57;100.00;101108.50;4971149;28;21136;-74
2023/01/07 09:58:59;;;;;;;0.10;0.10;;;;;;;10.32;100.00;101097.72;4976675;28;20271;-74
2023/01/07 10:01:33;;;;;;;0.10;0.10;;;;;;;10.43;100.00;101101.47;4980850;28;20049;-74
2023/01/07 10:04:09;;;;;;;0.10;0.10;;;;;;;10.53;100.00;101093.59;4978638;28;20030;-76
2023/01/07 10:06:53;;;;;;;0.00;0.00;;;;;;;10.59;100.00;101098.53;4980810;28;20030;-75
2023/01/07 10:09:25;;;;;;;0.10;0.10;;;;;;;10.23;100.00;101095.72;4976785;28;20076;-75
2023/01/07 10:12:01;;;;;;;0.10;0.10;;;;;;;10.74;100.00;101093.84;4978620;28;20060;-75
2023/01/07 10:15:08;;;;;;;0.10;0.10;;;;;;;10.34;100.00;101082.34;4976829;28;20026;-74
2023/01/07 10:18:15;;;;;;;0.10;0.10;;;;;;;10.67;100.00;101079.16;4957891;28;20047;-75
2023/01/07 10:20:58;;;;;;;0.10;0.10;;;;;;;10.58;100.00;101054.72;4978197;28;20541;-74
2023/01/07 10:23:31;;;;;;;0.10;0.10;;;;;;;11.18;100.00;101070.81;4958324;28;20503;-75
2023/01/07 10:25:58;;;;;;;0.10;0.10;;;;;;;11.58;99.61;101066.00;4977324;28;20033;-75
2023/01/07 10:28:35;;;;;;;0.10;0.10;;;;;;;11.41;99.76;101030.53;4976291;28;20033;-74
2023/01/07 10:31:01;;;;;;;0.10;0.10;;;;;;;12.02;96.50;101045.47;4975052;28;20087;-74
2023/01/07 10:33:30;;;;;;;0.10;0.10;;;;;;;11.81;96.04;101040.81;4972029;28;20056;-75
2023/01/07 10:36:09;;;;;;;0.10;0.10;;;;;;;12.05;96.34;101023.72;4973207;28;20120;-75
2023/01/07 10:38:36;;;;;;;0.10;0.10;;;;;;;11.91;92.96;101002.44;4997300;28;20034;-76
2023/01/07 10:41:21;;;;;;;0.10;0.10;;;;;;;12.06;93.41;101011.97;4976741;28;20111;-74
2023/01/07 10:44:06;;;;;;;0.10;0.10;;;;;;;12.30;91.21;101005.56;4980816;28;20140;-75
2023/01/07 10:46:49;;;;;;;0.10;0.10;;;;;;;12.35;91.04;100997.94;4981923;28;20027;-75
2023/01/07 10:49:53;;;;;;;0.10;0.10;;;;;;;12.30;89.61;100992.97;4980481;28;20084;-76
2023/01/07 10:52:34;;;;;;;0.10;0.10;;;;;;;12.41;89.82;100978.59;4977302;28;20521;-76
2023/01/07 10:55:14;;;;;;;0.10;0.10;;;;;;;12.34;88.40;100982.78;4978396;28;20113;-76
2023/01/07 10:57:40;;;;;;;0.10;0.10;;;;;;;12.21;90.62;100960.53;4981612;28;20484;-76
2023/01/07 11:00:11;;;;;;;0.10;0.10;;;;;;;12.51;87.19;100976.00;4978703;28;20045;-75
2023/01/07 11:02:36;;;;;;;0.10;0.10;;;;;;;12.60;85.90;100931.25;4978367;28;20041;-77
2023/01/07 11:05:02;;;;;;;0.10;0.10;;;;;;;12.65;87.70;100976.66;4978439;28;20022;-74
2023/01/07 11:07:47;;;;;;;0.10;0.10;;;;;;;12.70;86.02;100972.59;4974423;28;20113;-75
2023/01/07 11:10:19;;;;;;;0.10;0.10;;;;;;;12.57;87.32;100974.59;4982999;28;20062;-75
2023/01/07 11:12:52;;;;;;;0.10;0.10;;;;;;;12.33;87.69;100972.13;4984793;28;20023;-75
2023/01/07 11:15:24;;;;;;;0.10;0.10;;;;;;;12.64;84.87;100948.00;4975378;28;20089;-75
2023/01/07 11:18:03;;;;;;;0.10;0.10;;;;;;;12.66;85.67;100948.72;4978999;28;20118;-74
2023/01/07 11:20:42;;;;;;;0.10;0.10;;;;;;;12.85;84.10;100948.00;4958158;28;20185;-75
2023/01/07 11:23:23;;;;;;;0.10;0.10;;;;;;;12.92;81.83;100927.66;4973271;28;20392;-74
2023/01/07 11:25:48;;;;;;;0.10;0.10;;;;;;;12.60;86.28;100921.31;4973519;28;20388;-74
2023/01/07 11:28:19;;;;;;;0.10;0.10;;;;;;;12.41;84.03;100937.34;4972499;28;20030;-77
2023/01/07 11:30:45;;;;;;;0.10;0.10;;;;;;;12.27;85.75;100925.91;4981030;28;20042;-75
2023/01/07 11:33:21;;;;;;;0.10;0.10;;;;;;;12.38;84.14;100916.94;4982434;28;20048;-76
2023/01/07 11:35:51;;;;;;;0.10;0.10;;;;;;;12.84;82.66;100908.59;4977731;28;20033;-73